createdAt,value
2018-11-23T00:01:47.392Z,39.73
2018-11-23T00:04:15.873Z,39.40
2018-11-23T00:06:44.301Z,41.20
2018-11-23T00:09:12.876Z,43.27
2018-11-23T00:11:41.360Z,38.93
2018-11-23T00:14:09.824Z,42.87
2018-11-23T00:16:38.565Z,39.57
2018-11-23T00:19:07.033Z,42.20
2018-11-23T00:21:35.503Z,40.63
2018-11-23T00:24:04.264Z,42.60
2018-11-23T00:26:32.712Z,41.67
2018-11-23T00:29:01.178Z,43.33
2018-11-23T00:31:29.648Z,41.27
2018-11-23T00:33:58.092Z,43.23
2018-11-23T00:36:26.722Z,39.03
2018-11-23T00:38:55.297Z,42.27
2018-11-23T00:41:23.748Z,38.90
2018-11-23T00:43:52.211Z,40.27
2018-11-23T00:46:20.663Z,43.87
2018-11-23T00:48:49.521Z,42.80
2018-11-23T00:51:17.965Z,41.67
2018-11-23T00:53:46.415Z,42.10
2018-11-23T00:56:14.847Z,43.77
2018-11-23T00:58:43.329Z,41.63
2018-11-23T01:01:11.741Z,50.73
2018-11-23T01:03:40.228Z,46.90
2018-11-23T01:06:08.705Z,41.00
2018-11-23T01:08:37.200Z,40.30
2018-11-23T01:11:06.046Z,39.70
2018-11-23T01:13:34.523Z,42.40
2018-11-23T01:16:03.698Z,44.87
2018-11-23T01:18:32.260Z,43.53
2018-11-23T01:21:00.712Z,44.90
2018-11-23T01:23:29.197Z,45.13
2018-11-23T01:25:57.659Z,46.87
2018-11-23T01:28:26.149Z,41.87
2018-11-23T01:30:55.064Z,43.67
2018-11-23T01:33:23.520Z,44.60
2018-11-23T01:35:52.032Z,43.23
2018-11-23T01:38:20.516Z,39.53
2018-11-23T01:40:48.932Z,42.10
2018-11-23T01:43:17.377Z,39.73
2018-11-23T01:45:45.819Z,46.10
2018-11-23T01:48:14.261Z,42.50
2018-11-23T01:50:42.747Z,38.97
2018-11-23T01:53:11.226Z,45.70
2018-11-23T01:55:39.636Z,43.50
2018-11-23T01:58:08.067Z,45.07
2018-11-23T02:00:36.509Z,45.70
2018-11-23T02:03:05.291Z,47.17
2018-11-23T02:05:33.752Z,48.17
2018-11-23T02:08:02.185Z,44.70
2018-11-23T02:10:30.659Z,48.40
2018-11-23T02:12:59.092Z,44.17
2018-11-23T02:15:27.603Z,45.03
2018-11-23T02:17:56.231Z,43.93
2018-11-23T02:20:24.721Z,43.97
2018-11-23T02:22:53.152Z,50.87
2018-11-23T02:25:21.580Z,47.60
2018-11-23T02:27:50.067Z,51.50
2018-11-23T02:30:19.775Z,47.60
2018-11-23T02:32:48.273Z,48.27
2018-11-23T02:35:17.191Z,49.80
2018-11-23T02:37:45.722Z,44.07
2018-11-23T02:40:18.256Z,50.73
2018-11-23T02:42:46.806Z,48.23
2018-11-23T02:45:20.008Z,48.03
2018-11-23T02:47:49.013Z,46.07
2018-11-23T02:50:17.519Z,42.77
2018-11-23T02:52:46.368Z,45.90
2018-11-23T02:55:16.068Z,49.00
2018-11-23T02:57:44.515Z,48.60
2018-11-23T03:00:15.416Z,48.70
2018-11-23T03:02:44.184Z,46.03
2018-11-23T03:05:14.688Z,44.87
2018-11-23T03:07:43.506Z,48.07
2018-11-23T03:10:13.205Z,45.30
2018-11-23T03:12:42.235Z,49.90
2018-11-23T03:15:12.469Z,46.30
2018-11-23T03:17:41.224Z,48.20
2018-11-23T03:20:11.909Z,48.67
2018-11-23T03:22:40.830Z,45.47
2018-11-23T03:25:10.332Z,46.20
2018-11-23T03:27:38.769Z,48.57
2018-11-23T03:30:11.804Z,48.03
2018-11-23T03:32:40.229Z,49.60
2018-11-23T03:35:08.929Z,44.20
2018-11-23T03:37:37.374Z,48.47
2018-11-23T03:40:05.932Z,49.37
2018-11-23T03:42:34.364Z,46.53
2018-11-23T03:45:03.600Z,51.77
2018-11-23T03:47:32.070Z,50.40
2018-11-23T03:50:00.581Z,48.67
2018-11-23T03:52:29.030Z,48.80
2018-11-23T03:54:57.478Z,50.80
2018-11-23T03:57:25.920Z,45.47
2018-11-23T03:59:54.539Z,52.97
2018-11-23T04:02:22.976Z,48.23
2018-11-23T04:04:51.415Z,53.33
2018-11-23T04:07:19.849Z,49.37
2018-11-23T04:09:48.307Z,50.23
2018-11-23T04:12:16.778Z,46.97
2018-11-23T04:14:45.187Z,50.97
2018-11-23T04:17:13.624Z,49.13
2018-11-23T04:19:42.108Z,48.87
2018-11-23T04:22:10.559Z,51.37
2018-11-23T04:24:39.000Z,46.63
2018-11-23T04:27:07.708Z,49.30
2018-11-23T04:29:36.129Z,49.87
2018-11-23T04:32:04.615Z,46.70
2018-11-23T04:34:33.058Z,49.63
2018-11-23T04:37:01.486Z,50.17
2018-11-23T04:39:29.939Z,48.90
2018-11-23T04:41:58.443Z,49.13
2018-11-23T04:44:26.838Z,54.57
2018-11-23T04:46:55.302Z,46.73
2018-11-23T04:49:23.765Z,54.90
2018-11-23T04:51:52.236Z,49.03
2018-11-23T04:54:20.669Z,46.70
2018-11-23T04:56:49.132Z,49.43
2018-11-23T04:59:17.580Z,49.27
2018-11-23T05:01:46.028Z,50.97
2018-11-23T05:04:14.452Z,45.07
2018-11-23T05:06:42.895Z,50.80
2018-11-23T05:09:11.769Z,46.17
2018-11-23T05:11:40.256Z,48.90
2018-11-23T05:14:08.784Z,46.50
2018-11-23T05:16:37.224Z,46.50
2018-11-23T05:19:06.076Z,47.87
2018-11-23T05:21:34.586Z,48.83
2018-11-23T05:24:03.084Z,50.57
2018-11-23T05:26:31.537Z,50.57
2018-11-23T05:29:00.040Z,47.80
2018-11-23T05:31:28.493Z,52.73
2018-11-23T05:33:57.009Z,48.40
2018-11-23T05:36:25.440Z,48.03
2018-11-23T05:38:53.918Z,48.00
2018-11-23T05:41:22.430Z,53.33
2018-11-23T05:43:50.840Z,52.07
2018-11-23T05:46:19.287Z,55.77
2018-11-23T05:48:47.777Z,49.37
2018-11-23T05:51:16.259Z,55.03
2018-11-23T05:53:44.687Z,48.40
2018-11-23T05:56:13.308Z,51.27
2018-11-23T05:58:41.736Z,50.67
2018-11-23T06:01:10.192Z,51.07
2018-11-23T06:03:38.633Z,50.80
2018-11-23T06:06:07.137Z,50.57
2018-11-23T06:08:35.632Z,45.43
2018-11-23T06:11:04.431Z,46.40
2018-11-23T06:13:33.765Z,47.70
2018-11-23T06:16:02.229Z,53.23
2018-11-23T06:18:30.787Z,46.40
2018-11-23T06:20:59.235Z,46.90
2018-11-23T06:23:27.669Z,45.30
2018-11-23T06:26:04.389Z,41.70
2018-11-23T06:28:32.915Z,46.97
2018-11-23T06:31:01.366Z,47.80
2018-11-23T06:33:35.900Z,48.00
2018-11-23T06:36:08.271Z,49.33
2018-11-23T06:38:36.757Z,48.43
2018-11-23T06:41:10.148Z,49.17
2018-11-23T06:43:34.411Z,48.30
2018-11-23T06:46:03.813Z,48.90
2018-11-23T06:48:32.292Z,44.03
2018-11-23T06:51:00.724Z,46.20
2018-11-23T06:53:29.204Z,45.47
2018-11-23T06:55:58.497Z,50.80
2018-11-23T06:58:27.281Z,53.13
2018-11-23T07:00:56.069Z,51.00
2018-11-23T07:03:24.659Z,47.97
2018-11-23T07:05:53.165Z,50.27
2018-11-23T07:08:22.251Z,52.03
2018-11-23T07:10:50.778Z,52.90
2018-11-23T07:13:19.696Z,52.37
2018-11-23T07:15:48.204Z,51.73
2018-11-23T07:18:16.663Z,46.70
2018-11-23T07:20:45.115Z,50.20
2018-11-23T07:23:13.552Z,50.53
2018-11-23T07:25:42.045Z,51.80
2018-11-23T07:28:15.493Z,47.50
2018-11-23T07:30:38.963Z,48.40
2018-11-23T07:33:07.437Z,49.67
2018-11-23T07:35:35.914Z,49.70
2018-11-23T07:38:04.413Z,49.17
2018-11-23T07:40:45.624Z,48.37
2018-11-23T07:43:14.251Z,50.90
2018-11-23T07:45:43.594Z,47.93
2018-11-23T07:48:12.088Z,47.03
2018-11-23T07:50:40.662Z,45.13
2018-11-23T07:53:09.394Z,46.57
2018-11-23T07:55:37.848Z,48.03
2018-11-23T07:58:07.341Z,46.97
2018-11-23T08:00:35.836Z,47.20
2018-11-23T08:03:04.705Z,42.87
2018-11-23T08:05:33.185Z,44.03
2018-11-23T08:08:01.620Z,45.53
2018-11-23T08:10:29.252Z,43.77
2018-11-23T08:12:57.749Z,47.07
2018-11-23T08:15:27.227Z,44.37
2018-11-23T08:17:55.709Z,46.07
2018-11-23T08:20:25.280Z,43.47
2018-11-23T08:22:53.825Z,41.37
2018-11-23T08:25:23.506Z,43.43
2018-11-23T08:27:53.279Z,46.30
2018-11-23T08:30:24.314Z,45.90
2018-11-23T08:32:53.084Z,44.63
2018-11-23T08:35:21.545Z,42.13
2018-11-23T08:37:50.052Z,42.67
2018-11-23T08:40:20.847Z,38.70
2018-11-23T08:42:50.206Z,45.83
2018-11-23T08:45:20.607Z,41.43
2018-11-23T08:47:49.090Z,43.70
2018-11-23T08:50:21.149Z,42.13
2018-11-23T08:52:49.652Z,40.53
2018-11-23T08:55:18.734Z,43.90
2018-11-23T08:57:47.188Z,40.13
2018-11-23T09:00:23.785Z,43.97
2018-11-23T09:02:53.644Z,43.43
2018-11-23T09:05:22.094Z,41.53
2018-11-23T09:07:51.758Z,46.40
2018-11-23T09:10:22.581Z,38.57
2018-11-23T09:12:54.146Z,41.03
2018-11-23T09:15:22.718Z,44.50
2018-11-23T09:17:51.198Z,41.60
2018-11-23T09:20:20.504Z,45.23
2018-11-23T09:22:48.950Z,40.60
2018-11-23T09:25:18.634Z,41.30
2018-11-23T09:27:47.120Z,43.63
2018-11-23T09:30:20.968Z,45.53
2018-11-23T09:32:49.978Z,41.57
2018-11-23T09:35:18.478Z,37.97
2018-11-23T09:37:47.440Z,39.03
2018-11-23T09:40:17.383Z,42.37
2018-11-23T09:42:45.862Z,47.77
2018-11-23T09:45:16.801Z,39.47
2018-11-23T09:47:46.124Z,37.53
2018-11-23T09:50:16.027Z,38.40
2018-11-23T09:52:45.233Z,37.87
2018-11-23T09:55:13.716Z,36.43
2018-11-23T09:57:48.934Z,39.67
2018-11-23T10:00:18.843Z,38.10
2018-11-23T10:02:48.076Z,36.20
2018-11-23T10:05:17.135Z,39.27
2018-11-23T10:07:47.755Z,37.50
2018-11-23T10:10:17.191Z,36.73
2018-11-23T10:12:45.698Z,36.30
2018-11-23T10:15:15.435Z,36.87
2018-11-23T10:17:43.962Z,39.43
2018-11-23T10:20:14.932Z,38.60
2018-11-23T10:22:43.877Z,35.93
2018-11-23T10:25:13.756Z,34.77
2018-11-23T10:27:42.878Z,38.97
2018-11-23T10:30:13.915Z,36.50
2018-11-23T10:32:42.501Z,35.20
2018-11-23T10:35:11.508Z,36.50
2018-11-23T10:37:41.192Z,33.67
2018-11-23T10:40:14.069Z,35.53
2018-11-23T10:42:42.976Z,33.50
2018-11-23T10:45:13.603Z,37.27
2018-11-23T10:47:42.078Z,34.40
2018-11-23T10:50:13.617Z,32.23
2018-11-23T10:52:42.090Z,36.07
2018-11-23T10:55:13.173Z,34.77
2018-11-23T10:57:41.884Z,31.93
2018-11-23T11:00:21.760Z,31.97
2018-11-23T11:02:56.415Z,32.87
2018-11-23T11:05:35.195Z,32.37
2018-11-23T11:08:04.503Z,33.70
2018-11-23T11:10:32.961Z,37.03
2018-11-23T11:13:01.461Z,32.20
2018-11-23T11:15:29.924Z,34.40
2018-11-23T11:17:58.533Z,33.90
2018-11-23T11:20:26.986Z,34.73
2018-11-23T11:22:55.485Z,35.10
2018-11-23T11:25:23.995Z,34.00
2018-11-23T11:27:52.448Z,34.50
2018-11-23T11:30:21.146Z,38.10
2018-11-23T11:32:50.145Z,33.07
2018-11-23T11:35:18.632Z,33.63
2018-11-23T11:37:47.105Z,36.17
2018-11-23T11:40:17.138Z,34.23
2018-11-23T11:42:45.758Z,36.67
2018-11-23T11:45:15.671Z,32.63
2018-11-23T11:47:44.635Z,33.13
2018-11-23T11:50:13.819Z,34.97
2018-11-23T11:52:43.768Z,31.30
2018-11-23T11:55:14.171Z,30.67
2018-11-23T11:57:43.221Z,34.27
2018-11-23T12:00:21.909Z,37.80
2018-11-23T12:02:50.348Z,33.37
2018-11-23T12:05:18.816Z,29.87
2018-11-23T12:07:47.304Z,31.30
2018-11-23T12:10:17.514Z,30.00
2018-11-23T12:12:46.004Z,31.43
2018-11-23T12:15:15.182Z,39.50
2018-11-23T12:17:44.029Z,31.20
2018-11-23T12:20:14.808Z,28.60
2018-11-23T12:22:43.819Z,29.53
2018-11-23T12:25:12.316Z,28.60
2018-11-23T12:27:40.887Z,28.97
2018-11-23T12:30:15.089Z,28.37
2018-11-23T12:32:44.746Z,28.07
2018-11-23T12:35:14.305Z,27.37
2018-11-23T12:37:43.190Z,26.53
2018-11-23T12:40:13.711Z,29.00
2018-11-23T12:42:42.799Z,29.53
2018-11-23T12:45:14.252Z,30.47
2018-11-23T12:47:42.881Z,30.57
2018-11-23T12:50:14.417Z,29.27
2018-11-23T12:52:42.903Z,28.83
2018-11-23T12:55:11.800Z,24.53
2018-11-23T12:57:40.757Z,29.53
2018-11-23T13:00:12.889Z,28.50
2018-11-23T13:02:41.327Z,28.83
2018-11-23T13:05:09.803Z,29.30
2018-11-23T13:07:38.220Z,31.77
2018-11-23T13:10:07.379Z,29.87
2018-11-23T13:12:35.828Z,29.77
2018-11-23T13:15:04.741Z,31.03
2018-11-23T13:17:33.216Z,31.50
2018-11-23T13:20:01.696Z,31.13
2018-11-23T13:22:30.161Z,26.37
2018-11-23T13:24:58.613Z,31.27
2018-11-23T13:27:27.075Z,31.23
2018-11-23T13:29:55.569Z,29.50
2018-11-23T13:32:24.053Z,25.50
2018-11-23T13:34:52.531Z,28.30
2018-11-23T13:37:21.033Z,27.33
2018-11-23T13:39:49.764Z,32.00
2018-11-23T13:42:18.234Z,32.73
2018-11-23T13:44:46.709Z,34.73
2018-11-23T13:47:15.241Z,27.33
2018-11-23T13:49:43.690Z,29.00
2018-11-23T13:52:12.143Z,26.30
2018-11-23T13:54:40.672Z,29.07
2018-11-23T13:57:09.155Z,31.03
2018-11-23T13:59:37.697Z,29.30
2018-11-23T14:02:06.432Z,32.37
2018-11-23T14:04:34.886Z,32.17
2018-11-23T14:07:03.384Z,28.93
2018-11-23T14:09:31.847Z,30.00
2018-11-23T14:12:00.346Z,34.90
2018-11-23T14:14:28.798Z,29.90
2018-11-23T14:16:57.280Z,32.60
2018-11-23T14:19:25.789Z,33.23
2018-11-23T14:21:54.269Z,33.07
2018-11-23T14:24:22.754Z,34.47
2018-11-23T14:26:51.391Z,30.80
2018-11-23T14:29:19.897Z,29.00
2018-11-23T14:31:48.352Z,34.87
2018-11-23T14:34:16.828Z,27.67
2018-11-23T14:36:45.304Z,29.40
2018-11-23T14:39:13.764Z,27.80
2018-11-23T14:41:42.246Z,31.10
2018-11-23T14:44:10.761Z,29.80
2018-11-23T14:46:39.226Z,29.57
2018-11-23T14:49:07.745Z,30.43
2018-11-23T14:51:36.205Z,29.53
2018-11-23T14:54:04.771Z,27.30
2018-11-23T14:56:33.273Z,29.70
2018-11-23T14:59:01.740Z,25.73
2018-11-23T15:01:30.175Z,31.93
2018-11-23T15:03:58.658Z,26.80
2018-11-23T15:06:27.134Z,30.70
2018-11-23T15:08:55.967Z,24.20
2018-11-23T15:11:24.516Z,29.30
2018-11-23T15:13:53.000Z,28.13
2018-11-23T15:16:21.455Z,31.80
2018-11-23T15:18:50.014Z,29.90
2018-11-23T15:21:18.431Z,28.37
2018-11-23T15:23:46.969Z,31.43
2018-11-23T15:26:15.400Z,29.13
2018-11-23T15:28:43.892Z,32.70
2018-11-23T15:31:12.346Z,31.50
2018-11-23T15:33:40.777Z,29.33
2018-11-23T15:36:09.291Z,31.70
2018-11-23T15:38:37.771Z,34.17
2018-11-23T15:41:06.261Z,35.63
2018-11-23T15:43:34.708Z,41.23
2018-11-23T15:46:03.247Z,40.43
2018-11-23T15:48:31.662Z,37.33
2018-11-23T15:51:05.367Z,38.77
2018-11-23T15:53:33.813Z,31.87
2018-11-23T15:56:02.302Z,36.57
2018-11-23T15:58:30.760Z,34.17
2018-11-23T16:00:59.374Z,33.23
2018-11-23T16:03:27.874Z,41.47
2018-11-23T16:05:56.514Z,37.33
2018-11-23T16:08:24.948Z,32.77
2018-11-23T16:10:53.416Z,31.80
2018-11-23T16:13:21.869Z,35.60
2018-11-23T16:15:50.420Z,38.20
2018-11-23T16:18:18.862Z,36.10
2018-11-23T16:20:47.808Z,33.70
2018-11-23T16:23:17.871Z,33.63
2018-11-23T16:25:47.078Z,32.30
2018-11-23T16:28:15.600Z,34.20
2018-11-23T16:30:46.474Z,35.70
2018-11-23T16:33:16.848Z,35.83
2018-11-23T16:35:45.464Z,32.90
2018-11-23T16:38:15.545Z,37.13
2018-11-23T16:40:45.667Z,36.80
2018-11-23T16:43:14.876Z,36.17
2018-11-23T16:45:43.976Z,37.77
2018-11-23T16:48:13.416Z,39.53
2018-11-23T16:50:41.958Z,39.80
2018-11-23T16:53:10.448Z,39.53
2018-11-23T16:55:38.910Z,40.13
2018-11-23T16:58:08.697Z,38.47
2018-11-23T17:00:38.551Z,38.17
2018-11-23T17:03:09.355Z,37.33
2018-11-23T17:05:42.178Z,39.00
2018-11-23T17:08:10.990Z,39.53
2018-11-23T17:10:39.468Z,44.17
2018-11-23T17:13:08.172Z,38.57
2018-11-23T17:15:36.612Z,40.63
2018-11-23T17:18:05.466Z,39.60
2018-11-23T17:20:34.675Z,41.17
2018-11-23T17:23:04.420Z,42.03
2018-11-23T17:25:33.176Z,41.50
2018-11-23T17:28:03.123Z,44.03
2018-11-23T17:30:32.505Z,46.00
2018-11-23T17:33:01.137Z,45.30
2018-11-23T17:35:29.977Z,41.00
2018-11-23T17:37:58.511Z,50.17
2018-11-23T17:40:28.514Z,42.57
2018-11-23T17:42:57.028Z,46.63
2018-11-23T17:45:28.620Z,42.83
2018-11-23T17:47:57.279Z,42.63
2018-11-23T17:50:27.927Z,48.37
2018-11-23T17:52:56.714Z,43.47
2018-11-23T17:55:25.190Z,42.10
2018-11-23T17:57:54.741Z,41.20
2018-11-23T18:00:25.586Z,40.43
2018-11-23T18:02:54.813Z,41.27
2018-11-23T18:05:24.925Z,45.13
2018-11-23T18:07:53.533Z,46.60
2018-11-23T18:10:24.302Z,37.97
2018-11-23T18:12:53.647Z,58.00
2018-11-23T18:15:23.911Z,53.43
2018-11-23T18:17:53.124Z,43.77
2018-11-23T18:20:22.708Z,44.93
2018-11-23T18:22:52.719Z,41.17
2018-11-23T18:25:27.653Z,46.50
2018-11-23T18:28:00.232Z,44.07
2018-11-23T18:30:31.836Z,43.90
2018-11-23T18:33:01.358Z,45.40
2018-11-23T18:35:29.930Z,45.03
2018-11-23T18:37:58.491Z,48.97
2018-11-23T18:40:26.940Z,46.97
2018-11-23T18:42:55.492Z,43.63
2018-11-23T18:45:23.991Z,45.43
2018-11-23T18:47:52.532Z,48.63
2018-11-23T18:50:21.068Z,44.13
2018-11-23T18:52:49.576Z,50.00
2018-11-23T18:55:22.072Z,45.03
2018-11-23T18:57:50.591Z,44.37
2018-11-23T19:00:19.054Z,45.50
2018-11-23T19:02:47.996Z,44.27
2018-11-23T19:05:24.393Z,39.57
2018-11-23T19:07:52.913Z,40.33
2018-11-23T19:10:21.427Z,39.47
2018-11-23T19:12:49.971Z,40.87
2018-11-23T19:15:25.101Z,43.57
2018-11-23T19:17:47.451Z,39.30
2018-11-23T19:20:19.166Z,43.60
2018-11-23T19:22:49.840Z,43.27
2018-11-23T19:25:18.405Z,44.57
2018-11-23T19:27:46.969Z,38.97
2018-11-23T19:30:17.002Z,38.80
2018-11-23T19:32:45.534Z,40.37
2018-11-23T19:35:14.415Z,41.03
2018-11-23T19:37:42.964Z,49.47
2018-11-23T19:40:13.606Z,41.80
2018-11-23T19:42:42.383Z,34.90
2018-11-23T19:45:13.137Z,38.83
2018-11-23T19:47:41.598Z,38.63
2018-11-23T19:50:12.652Z,37.60
2018-11-23T19:52:41.221Z,42.17
2018-11-23T19:55:10.576Z,39.30
2018-11-23T19:57:39.112Z,39.20
2018-11-23T20:00:21.443Z,35.77
2018-11-23T20:02:49.960Z,37.33
2018-11-23T20:05:18.654Z,38.67
2018-11-23T20:07:51.552Z,34.27
2018-11-23T20:10:20.874Z,34.00
2018-11-23T20:12:50.748Z,36.70
2018-11-23T20:15:19.449Z,35.07
2018-11-23T20:17:48.101Z,37.27
2018-11-23T20:20:17.252Z,36.27
2018-11-23T20:22:46.456Z,37.33
2018-11-23T20:25:16.035Z,39.30
2018-11-23T20:27:44.954Z,38.33
2018-11-23T20:30:15.473Z,35.37
2018-11-23T20:32:44.031Z,35.67
2018-11-23T20:35:17.345Z,34.23
2018-11-23T20:37:45.886Z,33.73
2018-11-23T20:40:17.597Z,37.77
2018-11-23T20:42:46.193Z,34.37
2018-11-23T20:45:14.764Z,31.37
2018-11-23T20:47:43.269Z,32.23
2018-11-23T20:50:13.051Z,33.50
2018-11-23T20:52:41.658Z,35.47
2018-11-23T20:55:12.487Z,34.97
2018-11-23T20:57:41.001Z,36.43
2018-11-23T21:00:12.766Z,31.90
2018-11-23T21:02:41.305Z,34.63
2018-11-23T21:05:11.054Z,36.70
2018-11-23T21:07:39.644Z,35.23
2018-11-23T21:10:10.732Z,34.53
2018-11-23T21:12:39.241Z,33.97
2018-11-23T21:15:38.749Z,30.80
2018-11-23T21:18:07.564Z,34.50
2018-11-23T21:20:39.018Z,33.93
2018-11-23T21:23:07.687Z,30.67
2018-11-23T21:25:36.141Z,31.07
2018-11-23T21:28:05.956Z,33.67
2018-11-23T21:30:33.308Z,32.90
2018-11-23T21:33:01.852Z,35.47
2018-11-23T21:35:30.384Z,33.37
2018-11-23T21:37:58.846Z,36.50
2018-11-23T21:40:27.349Z,34.70
2018-11-23T21:42:55.866Z,36.83
2018-11-23T21:45:24.629Z,33.33
2018-11-23T21:47:53.134Z,32.53
2018-11-23T21:50:25.475Z,34.17
2018-11-23T21:52:50.772Z,32.70
2018-11-23T21:55:21.633Z,31.83
2018-11-23T21:57:51.035Z,31.60
2018-11-23T22:00:19.612Z,33.77
2018-11-23T22:02:48.118Z,31.40
2018-11-23T22:05:16.680Z,32.37
2018-11-23T22:07:45.229Z,30.70
2018-11-23T22:10:14.835Z,28.97
2018-11-23T22:12:43.405Z,29.53
2018-11-23T22:15:19.962Z,27.67
2018-11-23T22:17:48.989Z,29.80
2018-11-23T22:20:18.500Z,31.73
2018-11-23T22:22:47.002Z,31.50
2018-11-23T22:25:17.410Z,30.30
2018-11-23T22:27:45.973Z,32.90
2018-11-23T22:30:20.623Z,31.30
2018-11-23T22:32:49.127Z,29.90
2018-11-23T22:35:17.635Z,29.23
2018-11-23T22:37:46.168Z,35.10
2018-11-23T22:40:15.851Z,33.90
2018-11-23T22:42:45.695Z,34.80
2018-11-23T22:45:15.096Z,34.43
2018-11-23T22:47:43.626Z,32.50
2018-11-23T22:50:13.513Z,28.63
2018-11-23T22:52:42.002Z,31.63
2018-11-23T22:55:11.678Z,31.17
2018-11-23T22:57:40.151Z,31.40
2018-11-23T23:00:20.260Z,29.83
2018-11-23T23:02:49.624Z,32.93
2018-11-23T23:05:18.889Z,31.23
2018-11-23T23:07:47.417Z,29.60
2018-11-23T23:10:15.930Z,29.47
2018-11-23T23:12:44.424Z,33.50
2018-11-23T23:15:13.024Z,32.20
2018-11-23T23:17:42.007Z,32.30
2018-11-23T23:20:12.720Z,29.63
2018-11-23T23:22:41.265Z,32.97
2018-11-23T23:25:10.967Z,30.40
2018-11-23T23:27:39.439Z,32.87
2018-11-23T23:30:17.698Z,33.27
2018-11-23T23:32:47.000Z,32.23
2018-11-23T23:35:16.312Z,28.13
2018-11-23T23:37:44.721Z,31.40
2018-11-23T23:40:18.025Z,31.83
2018-11-23T23:42:47.066Z,31.30
2018-11-23T23:45:17.736Z,32.43
2018-11-23T23:47:46.243Z,33.50
2018-11-23T23:50:15.930Z,32.00
2018-11-23T23:52:44.342Z,34.13
2018-11-23T23:55:12.851Z,31.00
2018-11-23T23:57:42.424Z,30.37
